Olathe, Colorado
Current Conditions -  °F | °C
As of 2:53 PM on Tuesday 25 Nov 2014 (Local Time) from KMTJ Reporting Station
Overcast Overcast  
Wind Chill: 34°   Ceiling: 6000
Heat Index: 34°   Visibility: 10mi
Dew Point: 13°   Wind: 0mph
Humidity: 42%   Direction: NA
Pressure: 30.3"   Gusts: NA
Location:  38.6°N, 107.98°W
Report Text: KMTJ 252153Z AUTO 00000KT 10SM OVC060 01/M11 A3030 RMK AO2 SLP280 T00111106
Loading
Personal Weather Stations






























Interactive Weather Map New forecast layout! Learn more

10-Day Weather Forecast

Advertisements
Track Severe Weather on mobile